Weather observations for the past three days for
Newberry, Luce County Airport
| Date | Time (edt) | Wind (kph) | Vis. (km) | Weather | Sky Cond. | Temperature (ºC) | Relative Humidity | Wind Chill (°C) | Heat Index (°C) | Pressure | Precipitation (cm) | ||||||
|---|---|---|---|---|---|---|---|---|---|---|---|---|---|---|---|---|---|
| Air | Dwpt | 6 hour | altimeter (cm) | sea level (mb) | 1 hr | 3 hr | 6 hr | ||||||||||
| Max. | Min. | ||||||||||||||||
| 07 | 15:35 | W 6 | 16.09 | Overcast | BKN040 OVC085 | 7 | -2 | 53% | 75.72 | 0.0 | |||||||
| 07 | 15:15 | W 11 | 16.09 | Overcast | FEW047 SCT080 OVC085 | 7 | -2 | 53% | 5 | 75.74 | 0.0 | ||||||
| 07 | 14:55 | W 13 | 16.09 | Overcast | FEW044 OVC055 | 7 | -2 | 53% | 5 | 75.74 | 0.0 | ||||||
| 07 | 14:35 | W 19 | 16.09 | Overcast | BKN044 OVC060 | 6 | -2 | 57% | 3 | 75.74 | 0.0 | ||||||
| 07 | 14:15 | W 20 | 16.09 | Overcast | BKN047 OVC055 | 7 | -3 | 49% | 4 | 75.74 | 0.0 | ||||||
| 07 | 13:55 | SW 11 | 16.09 | Overcast | SCT043 BKN049 OVC085 | 7 | -3 | 7.3 | 0.8 | 49% | 5 | 75.74 | 0.0 | ||||
| 07 | 13:35 | SW 22 | 16.09 | Overcast | BKN045 OVC055 | 7 | -3 | 49% | 4 | 75.74 | 0.0 | ||||||
| 07 | 13:15 | W 13 | 16.09 | Overcast | BKN045 OVC055 | 7 | -3 | 49% | 5 | 75.77 | 0.0 | ||||||
| 07 | 12:55 | SW 19 | 16.09 | Overcast | OVC044 | 7 | -3 | 49% | 4 | 75.77 | 0.0 | ||||||
| 07 | 12:35 | SW 17 G 26 | 16.09 | Overcast | FEW037 BKN042 OVC048 | 7 | -3 | 49% | 4 | 75.79 | 0.0 | ||||||
| 07 | 12:15 | W 20 | 16.09 | Overcast | BKN037 BKN042 OVC060 | 6 | -2 | 57% | 3 | 75.79 | 0.0 | ||||||
| 07 | 11:55 | SW 15 | 16.09 | Overcast | FEW033 SCT042 OVC070 | 6 | -2 | 57% | 3 | 75.82 | 0.0 | ||||||
| 07 | 11:35 | W 17 | 16.09 | Overcast | SCT036 BKN049 OVC070 | 6 | -2 | 57% | 3 | 75.82 | 0.0 | ||||||
| 07 | 11:15 | W 15 | 16.09 | Overcast | SCT033 SCT043 OVC070 | 6 | -2 | 57% | 3 | 75.82 | 0.0 | ||||||
| 07 | 10:55 | SW 11 | 16.09 | Overcast | FEW032 FEW050 OVC070 | 5 | -2 | 61% | 3 | 75.82 | 0.0 | ||||||
| 07 | 10:35 | SW 15 | 16.09 | Overcast | OVC070 | 5 | -2 | 61% | 2 | 75.82 | 0.0 | ||||||
| 07 | 10:15 | SW 15 | 16.09 | Overcast | OVC060 | 4 | -1 | 70% | 1 | 75.84 | 0.0 | ||||||
| 07 | 09:55 | SW 11 | 16.09 | Overcast | OVC060 | 4 | -1 | 70% | 2 | 75.84 | 0.0 | ||||||
| 07 | 09:35 | W 11 | 16.09 | Overcast | OVC060 | 3 | -1 | 75% | 0 | 75.84 | 0.0 | ||||||
| 07 | 09:15 | W 11 | 16.09 | Overcast | OVC060 | 3 | -1 | 75% | 0 | 75.84 | 0.0 | ||||||
| 07 | 08:55 | W 13 | 16.09 | Overcast | OVC060 | 3 | -1 | 75% | 0 | 75.84 | 0.0 | ||||||
| 07 | 08:35 | W 11 | 16.09 | Overcast | OVC060 | 2 | -1 | 81% | -1 | 75.84 | 0.0 | ||||||
| 07 | 08:15 | SW 11 | 16.09 | Overcast | OVC060 | 1 | -2 | 81% | -2 | 75.82 | 0.0 | ||||||
| 07 | 07:55 | SW 11 | 16.09 | Overcast | OVC060 | 1 | -2 | 0.8 | -2.4 | 81% | -2 | 75.82 | 0.0 | ||||
| 07 | 07:35 | SW 11 | 16.09 | Overcast | OVC060 | 1 | -3 | 75% | -2 | 75.82 | 0.0 | ||||||
| 07 | 07:15 | SW 11 | 16.09 | Overcast | OVC060 | 0 | -3 | 80% | -3 | 75.82 | 0.0 | ||||||
| 07 | 06:55 | SW 13 | 16.09 | Overcast | OVC060 | 0 | -3 | 80% | -4 | 75.79 | 0.0 | ||||||
| 07 | 06:35 | SW 13 | 16.09 | Overcast | OVC060 | 0 | -3 | 80% | -4 | 75.79 | 0.0 | ||||||
| 07 | 06:15 | SW 13 | 16.09 | Overcast | OVC060 | -1 | -3 | 86% | -5 | 75.79 | 0.0 | ||||||
| 07 | 05:55 | SW 13 | 16.09 | Overcast | OVC060 | -1 | -3 | 86% | -5 | 75.79 | 0.0 | ||||||
| 07 | 05:35 | SW 9 | 16.09 | Overcast | OVC060 | -2 | -3 | 93% | -5 | 75.79 | 0.0 | ||||||
| 07 | 05:15 | SW 15 | 16.09 | Partly Cloudy | SCT060 | -2 | -4 | 86% | -6 | 75.82 | 0.0 | ||||||
| 07 | 04:55 | SW 9 | 16.09 | Fair | CLR | -2 | -4 | 86% | -5 | 75.82 | 0.0 | ||||||
| 07 | 04:35 | SW 11 | 16.09 | Fair | CLR | -2 | -3 | 93% | -6 | 75.82 | 0.0 | ||||||
| 07 | 04:15 | SW 11 | 16.09 | Mostly Cloudy | BKN110 | -2 | -4 | 86% | -6 | 75.84 | 0.0 | ||||||
| 07 | 03:55 | SW 11 | 16.09 | Overcast | OVC110 | -1 | -4 | 80% | -4 | 75.84 | 0.0 | ||||||
| 07 | 03:35 | SW 11 | 16.09 | Overcast | OVC110 | -1 | -3 | 86% | -4 | 75.87 | 0.0 | ||||||
| 07 | 03:15 | SW 13 | 16.09 | Overcast | OVC110 | -1 | -3 | 86% | -5 | 75.87 | 0.0 | ||||||
| 07 | 02:55 | SW 13 | 16.09 | Overcast | OVC110 | -1 | -3 | 86% | -5 | 75.87 | 0.0 | ||||||
| 07 | 02:35 | SW 11 | 16.09 | Overcast | FEW043 OVC110 | -1 | -3 | 86% | -4 | 75.9 | 0.0 | ||||||
| 07 | 02:15 | SW 11 | 16.09 | Overcast | BKN043 BKN050 OVC110 | -1 | -3 | 86% | -4 | 75.92 | 0.0 | ||||||
| 07 | 01:55 | SW 9 | 16.09 | Overcast | SCT041 OVC050 | -1 | -3 | 4.7 | -0.2 | 86% | -4 | 75.92 | 0.0 | ||||
| 07 | 01:35 | SW 9 | 16.09 | Overcast | OVC050 | 0 | -3 | 80% | -3 | 75.92 | 0.0 | ||||||
| 07 | 01:15 | W 4 | 16.09 | Overcast | OVC050 | 0 | -3 | 80% | 75.95 | 0.0 | |||||||
| 07 | 00:55 | NW 6 | 16.09 | Overcast | OVC060 | 1 | -3 | 75% | 75.95 | 0.0 | |||||||
| 07 | 00:35 | W 6 | 16.09 | Overcast | OVC060 | 1 | -3 | 75% | 75.95 | 0.0 | |||||||
| 07 | 00:15 | W 9 | 16.09 | Overcast | OVC070 | 1 | -3 | 75% | -2 | 75.95 | 0.0 | ||||||
| 06 | 23:55 | W 6 | 16.09 | Overcast | OVC060 | 1 | -3 | 75% | 75.97 | 0.0 | |||||||
| 06 | 23:35 | W 7 | 16.09 | Overcast | OVC060 | 2 | -3 | 70% | 0 | 75.97 | 0.0 | ||||||
| 06 | 23:15 | W 7 | 16.09 | Overcast | OVC060 | 2 | -3 | 70% | 0 | 75.97 | 0.0 | ||||||
| 06 | 22:55 | W 11 | 16.09 | A Few Clouds | FEW060 FEW075 | 2 | -4 | 65% | -1 | 75.97 | 0.0 | ||||||
| 06 | 22:35 | NW 13 | 16.09 | Overcast | SCT060 OVC075 | 3 | -4 | 60% | 0 | 75.97 | 0.0 | ||||||
| 06 | 22:15 | NW 6 | 16.09 | Overcast | OVC060 | 3 | -5 | 56% | 75.97 | 0.0 | |||||||
| 06 | 21:55 | NW 6 | 16.09 | Overcast | FEW039 FEW045 OVC060 | 3 | -5 | 56% | 75.97 | 0.0 | |||||||
| 06 | 21:35 | N 7 | 16.09 | Overcast | SCT039 BKN044 OVC070 | 3 | -5 | 56% | 1 | 75.95 | 0.0 | ||||||
| 06 | 21:15 | W 9 | 16.09 | Overcast | OVC070 | 3 | -4 | 60% | 1 | 75.95 | 0.0 | ||||||
| 06 | 20:55 | W 13 | 16.09 | Overcast | BKN060 OVC070 | 3 | -4 | 60% | 0 | 75.95 | 0.0 | ||||||
| 06 | 20:35 | W 11 | 16.09 | Overcast | SCT048 OVC060 | 4 | -4 | 56% | 2 | 75.92 | 0.0 | ||||||
| 06 | 20:15 | W 24 G 30 | 16.09 | Overcast | SCT044 OVC050 | 4 | -4 | 56% | -0 | 75.92 | 0.0 | ||||||
| 06 | 19:55 | W 19 | 16.09 | Overcast | OVC044 | 5 | -4 | 6 | 4.1 | 53% | 2 | 75.92 | 0.0 | ||||
| 06 | 19:35 | NW 11 | 16.09 | Overcast | OVC049 | 5 | -4 | 53% | 3 | 75.9 | 0.0 | ||||||
| 06 | 19:15 | W 13 | 16.09 | Overcast | OVC049 | 5 | -5 | 49% | 2 | 75.9 | 0.0 | ||||||
| 06 | 18:55 | W 17 | 16.09 | Overcast | OVC060 | 5 | -5 | 49% | 2 | 75.9 | 0.0 | ||||||
| 06 | 18:35 | NW 19 | 16.09 | Overcast | OVC050 | 6 | -5 | 46% | 3 | 75.9 | 0.0 | ||||||
| 06 | 18:15 | SW 19 | 16.09 | Overcast | BKN050 BKN065 OVC070 | 6 | -5 | 46% | 3 | 75.9 | 0.0 | ||||||
| 06 | 17:55 | W 17 | 16.09 | Overcast | SCT050 OVC065 | 6 | -6 | 42% | 3 | 75.87 | 0.0 | ||||||
| 06 | 17:35 | W 15 | 16.09 | Overcast | BKN055 OVC065 | 6 | -6 | 42% | 3 | 75.87 | 0.0 | ||||||
| 06 | 17:15 | W 17 G 26 | 16.09 | Overcast | SCT050 OVC065 | 6 | -6 | 42% | 3 | 75.87 | 0.0 | ||||||
| 06 | 16:55 | W 11 | 16.09 | Overcast | BKN050 OVC065 | 6 | -6 | 42% | 4 | 75.9 | 0.0 | ||||||
| 06 | 16:35 | W 13 G 30 | 16.09 | Overcast | OVC050 | 6 | -7 | 39% | 4 | 75.87 | 0.0 | ||||||
| 06 | 16:15 | W 15 | 16.09 | Overcast | OVC050 | 6 | -7 | 39% | 3 | 75.9 | 0.0 | ||||||
| 06 | 15:55 | NW 15 | 16.09 | Overcast | OVC050 | 5 | -7 | 42% | 2 | 75.9 | 0.0 | ||||||
| 06 | 15:35 | W 9 | 16.09 | Overcast | OVC050 | 5 | -6 | 45% | 3 | 75.9 | 0.0 | ||||||
| 06 | 15:15 | W 13 | 16.09 | Overcast | OVC050 | 5 | -5 | 49% | 2 | 75.9 | 0.0 | ||||||
| 06 | 14:55 | W 15 | 16.09 | Overcast | OVC048 | 4 | -6 | 48% | 1 | 75.9 | 0.0 | ||||||
| 06 | 14:35 | W 24 | 16.09 | Overcast | OVC046 | 4 | -5 | 52% | -0 | 75.9 | 0.0 | ||||||
| 06 | 14:15 | W 22 G 37 | 16.09 | Overcast | OVC049 | 5 | -6 | 45% | 1 | 75.9 | 0.0 | ||||||
| 06 | 13:55 | W 22 G 28 | 16.09 | Overcast | OVC049 | 5 | -6 | 4.9 | 0.9 | 45% | 1 | 75.9 | 0.0 | ||||
| 06 | 13:35 | NW 15 G 28 | 16.09 | Overcast | OVC049 | 5 | -6 | 45% | 2 | 75.9 | 0.0 | ||||||
| 06 | 13:15 | NW 13 G 26 | 16.09 | Overcast | OVC047 | 5 | -6 | 45% | 2 | 75.92 | 0.0 | ||||||
| 06 | 12:55 | W 19 | 16.09 | Overcast | OVC045 | 4 | -6 | 48% | 0 | 75.92 | 0.0 | ||||||
| 06 | 12:35 | W 22 G 30 | 16.09 | Overcast | OVC045 | 4 | -6 | 48% | -0 | 75.92 | 0.0 | ||||||
| 06 | 12:15 | W 22 G 31 | 16.09 | Overcast | OVC043 | 4 | -5 | 52% | -0 | 75.92 | 0.0 | ||||||
| 06 | 11:55 | W 19 | 16.09 | Overcast | OVC039 | 4 | -5 | 52% | 0 | 75.9 | 0.0 | ||||||
| 06 | 11:35 | W 20 G 28 | 16.09 | Overcast | OVC039 | 3 | -5 | 56% | -1 | 75.9 | 0.0 | ||||||
| 06 | 11:15 | W 20 G 28 | 16.09 | Overcast | OVC043 | 3 | -5 | 56% | -1 | 75.87 | 0.0 | ||||||
| 06 | 10:55 | W 26 G 31 | 16.09 | Overcast | OVC045 | 4 | -5 | 52% | -0 | 75.87 | 0.0 | ||||||
| 06 | 10:35 | W 22 | 16.09 | Overcast | OVC047 | 3 | -4 | 60% | -1 | 75.87 | 0.0 | ||||||
| 06 | 10:15 | NW 19 G 30 | 16.09 | Overcast | OVC047 | 3 | -4 | 60% | -1 | 75.87 | 0.0 | ||||||
| 06 | 09:55 | W 20 G 28 | 16.09 | Overcast | OVC047 | 3 | -3 | 65% | -1 | 75.84 | 0.0 | ||||||
| 06 | 09:35 | W 13 | 16.09 | Overcast | OVC047 | 3 | -4 | 60% | 0 | 75.84 | 0.0 | ||||||
| 06 | 09:15 | W 15 | 16.09 | Overcast | OVC047 | 2 | -3 | 70% | -2 | 75.84 | 0.0 | ||||||
| 06 | 08:55 | W 13 | 16.09 | Overcast | OVC049 | 2 | -4 | 65% | -1 | 75.84 | 0.0 | ||||||
| 06 | 08:35 | W 13 | 16.09 | Overcast | OVC049 | 2 | -4 | 65% | -1 | 75.82 | 0.0 | ||||||
| 06 | 08:15 | W 13 | 16.09 | Overcast | OVC049 | 1 | -4 | 70% | -2 | 75.82 | 0.0 | ||||||
| 06 | 07:55 | W 11 | 16.09 | Overcast | OVC049 | 1 | -3 | 0.9 | -1 | 75% | -2 | 75.79 | 0.0 | ||||
| 06 | 07:35 | SW 9 | 16.09 | Overcast | OVC049 | 1 | -3 | 75% | -2 | 75.77 | 0.0 | ||||||
| 06 | 07:15 | SW 11 | 16.09 | Overcast | OVC049 | 1 | -3 | 75% | -2 | 75.77 | 0.0 | ||||||
| 06 | 06:55 | SW 11 | 16.09 | Overcast | OVC049 | 0 | -3 | 80% | -3 | 75.74 | 0.0 | ||||||
| 06 | 06:35 | SW 11 | 16.09 | Overcast | OVC049 | 0 | -4 | 75% | -3 | 75.74 | 0.0 | ||||||
| 06 | 06:15 | SW 11 | 16.09 | Overcast | OVC049 | 0 | -4 | 75% | -3 | 75.74 | 0.0 | ||||||
| 06 | 05:55 | SW 11 | 16.09 | Overcast | OVC049 | 0 | -3 | 80% | -3 | 75.74 | 0.0 | ||||||
| 06 | 05:35 | SW 9 | 16.09 | Overcast | OVC049 | 0 | -3 | 80% | -3 | 75.74 | 0.0 | ||||||
| 06 | 05:15 | SW 9 | 16.09 | Overcast | OVC049 | 0 | -3 | 80% | -3 | 75.74 | 0.0 | ||||||
| 06 | 04:55 | SW 9 | 16.09 | Overcast | OVC049 | 0 | -3 | 80% | -3 | 75.74 | 0.0 | ||||||
| 06 | 04:35 | SW 9 | 16.09 | Overcast | OVC049 | 0 | -3 | 80% | -3 | 75.74 | 0.0 | ||||||
| 06 | 04:15 | SW 13 | 16.09 | Overcast | OVC049 | 0 | -3 | 80% | -4 | 75.74 | 0.0 | ||||||
| 06 | 03:55 | SW 13 | 16.09 | Overcast | OVC047 | 0 | -3 | 80% | -4 | 75.74 | 0.0 | ||||||
| 06 | 03:35 | SW 13 | 16.09 | Overcast | OVC047 | 0 | -3 | 80% | -4 | 75.74 | 0.0 | ||||||
| 06 | 03:15 | SW 13 | 16.09 | Overcast | OVC047 | 0 | -3 | 80% | -4 | 75.74 | 0.0 | ||||||
| 06 | 02:55 | SW 13 | 16.09 | Overcast | OVC047 | 0 | -4 | 75% | -4 | 75.74 | 0.0 | ||||||
| 06 | 02:35 | SW 13 | 16.09 | Overcast | OVC047 | 0 | -3 | 80% | -4 | 75.74 | 0.0 | ||||||
| 06 | 02:15 | SW 11 | 16.09 | Overcast | OVC047 | -1 | -4 | 80% | -4 | 75.74 | 0.0 | ||||||
| 06 | 01:55 | SW 9 | 16.09 | Overcast | OVC047 | -1 | -4 | 3.3 | -2.4 | 80% | -4 | 75.74 | 0.0 | ||||
| 06 | 01:35 | SW 7 | 16.09 | Overcast | OVC047 | -1 | -4 | 80% | -3 | 75.74 | 0.0 | ||||||
| 06 | 01:15 | SW 9 | 16.09 | Mostly Cloudy | BKN047 | -2 | -4 | 86% | -5 | 75.74 | 0.0 | ||||||
| 06 | 00:55 | SW 7 | 16.09 | Fair | CLR | -2 | -4 | 86% | -4 | 75.74 | 0.0 | ||||||
| 06 | 00:35 | SW 7 | 16.09 | Fair | CLR | -1 | -4 | 80% | -3 | 75.74 | 0.0 | ||||||
| 06 | 00:15 | SW 7 | 16.09 | Fair | CLR | -1 | -4 | 80% | -3 | 75.72 | 0.0 | ||||||
| 05 | 23:55 | W 9 | 16.09 | Fair | CLR | -1 | -4 | 80% | -4 | 75.74 | 0.0 | ||||||
| 05 | 23:35 | W 9 | 16.09 | Fair | CLR | -1 | -4 | 80% | -4 | 75.72 | 0.0 | ||||||
| 05 | 23:15 | W 7 | 16.09 | Fair | CLR | 0 | -4 | 75% | -2 | 75.72 | 0.0 | ||||||
| 05 | 22:55 | W 7 | 16.09 | Fair | CLR | 0 | -4 | 75% | -2 | 75.72 | 0.0 | ||||||
| 05 | 22:35 | NW 7 | 16.09 | Fair | CLR | 0 | -5 | 69% | -2 | 75.74 | 0.0 | ||||||
| 05 | 22:15 | NW 7 | 16.09 | Fair | CLR | 1 | -5 | 65% | -1 | 75.72 | 0.0 | ||||||
| 05 | 21:55 | NW 7 | 16.09 | Fair | CLR | 1 | -5 | 65% | -1 | 75.72 | 0.0 | ||||||
| 05 | 21:35 | NW 7 | 16.09 | Fair | CLR | 1 | -5 | 65% | -1 | 75.72 | 0.0 | ||||||
| 05 | 21:15 | NW 11 | 16.09 | Fair | CLR | 1 | -5 | 65% | -2 | 75.69 | 0.0 | ||||||
| 05 | 20:55 | NW 11 | 16.09 | A Few Clouds | FEW032 | 2 | -4 | 65% | -1 | 75.69 | 0.0 | ||||||
| 05 | 20:35 | NW 7 | 16.09 | Partly Cloudy | SCT034 SCT075 | 2 | -4 | 65% | 0 | 75.69 | 0.0 | ||||||
| 05 | 20:15 | NW 13 | 16.09 | Partly Cloudy | SCT034 SCT075 | 3 | -4 | 60% | 0 | 75.67 | 0.0 | ||||||
| 05 | 19:55 | NW 13 | 16.09 | Mostly Cloudy | SCT034 SCT040 BKN075 | 3 | -4 | 7.7 | 3.2 | 60% | 0 | 75.67 | 0.0 | ||||
| 05 | 19:35 | N 20 G 30 | 16.09 | Overcast | SCT037 BKN050 OVC075 | 4 | -4 | 56% | 0 | 75.64 | 0.0 | ||||||
| 05 | 19:15 | NW 22 G 31 | 16.09 | Overcast | BKN050 OVC075 | 4 | -4 | 56% | -0 | 75.64 | 0.0 | ||||||
| 05 | 18:55 | NW 17 G 28 | 16.09 | Overcast | FEW046 OVC050 | 4 | -4 | 56% | 1 | 75.62 | 0.0 | ||||||
| 05 | 18:35 | NW 15 | 16.09 | Overcast | SCT031 SCT046 OVC055 | 4 | -3 | 61% | 1 | 75.62 | 0.0 | ||||||
| 05 | 18:15 | NW 20 G 28 | 16.09 | Overcast | SCT031 BKN035 OVC055 | 4 | -3 | 61% | 0 | 75.59 | 0.0 | ||||||
| 05 | 17:55 | NW 13 G 30 | 16.09 | Overcast | SCT032 OVC055 | 4 | -2 | 65% | 1 | 75.59 | 0.0 | ||||||
| 05 | 17:35 | NW 17 G 28 | 16.09 | Overcast | BKN055 OVC065 | 5 | -2 | 61% | 2 | 75.59 | 0.0 | ||||||
| 05 | 17:15 | NW 20 G 28 | 16.09 | Overcast | FEW046 BKN050 OVC065 | 6 | -2 | 57% | 3 | 75.57 | 0.0 | ||||||
| 05 | 16:55 | NW 20 G 31 | 16.09 | Overcast | FEW040 OVC050 | 5 | -2 | 61% | 1 | 75.54 | 0.0 | ||||||
| 05 | 16:35 | NW 22 G 30 | 16.09 | Overcast | BKN041 OVC050 | 6 | -2 | 57% | 2 | 75.51 | 0.0 | ||||||
| 05 | 16:15 | NW 15 G 31 | 16.09 | Overcast | OVC042 | 6 | -2 | 57% | 3 | 75.49 | 0.0 | ||||||
| 05 | 15:55 | NW 15 | 16.09 | Overcast | BKN040 OVC060 | 7 | -2 | 53% | 5 | 75.46 | 0.0 | ||||||
| 05 | 15:35 | W 19 G 30 | 16.09 | Overcast | BKN038 OVC060 | 7 | -2 | 53% | 4 | 75.46 | 0.0 | ||||||
| 05 | 15:15 | NW 19 G 28 | 16.09 | Overcast | OVC038 | 7 | -2 | 53% | 4 | 75.44 | 0.0 | ||||||
| 05 | 14:55 | NW 15 | 16.09 | Overcast | BKN038 BKN049 OVC070 | 7 | -1 | 57% | 5 | 75.41 | 0.0 | ||||||
| 05 | 14:35 | NW 19 | 16.09 | Overcast | SCT041 BKN049 OVC070 | 7 | 0 | 61% | 4 | 75.41 | 0.0 | ||||||
| 05 | 14:15 | W 24 | 16.09 | Light Rain | BKN036 OVC044 | 6 | 0 | 66% | 2 | 75.41 | 0.0 | ||||||
| 05 | 13:55 | W 30 | 16.09 | Light Rain | FEW030 FEW038 OVC050 | 7 | -1 | 9.2 | 2 | 57% | 3 | 75.36 | 0.0 | ||||
| 05 | 13:35 | NW 17 | 16.09 | Overcast | BKN049 OVC055 | 8 | -2 | 50% | 6 | 75.34 | 0.0 | ||||||
| 05 | 13:15 | W 24 G 37 | 16.09 | Mostly Cloudy | BKN055 BKN065 BKN075 | 9 | -2 | 46% | 6 | 75.31 | 0.0 | ||||||
| 05 | 12:55 | W 26 G 35 | 16.09 | Mostly Cloudy | BKN050 | 8 | -1 | 53% | 5 | 75.34 | 0.0 | ||||||
| 05 | 12:35 | W 24 | 16.09 | Overcast | SCT041 OVC050 | 8 | -1 | 53% | 5 | 75.34 | 0.0 | ||||||
| 05 | 12:15 | W 30 | 16.09 | Overcast | BKN040 OVC048 | 8 | -1 | 53% | 4 | 75.34 | 0.0 | ||||||
| 05 | 11:55 | W 22 G 31 | 16.09 | Mostly Cloudy | BKN036 BKN042 BKN049 | 8 | -1 | 53% | 5 | 75.34 | 0.0 | ||||||
| 05 | 11:35 | W 17 G 31 | 16.09 | Mostly Cloudy | SCT042 SCT055 BKN100 | 7 | -1 | 57% | 4 | 75.34 | 0.0 | ||||||
| 05 | 11:15 | W 24 | 16.09 | Overcast | SCT042 BKN047 OVC060 | 6 | -1 | 61% | 2 | 75.34 | 0.0 | ||||||
| 05 | 10:55 | W 24 G 39 | 16.09 | Overcast | OVC042 | 6 | -2 | 57% | 2 | 75.31 | 0.0 | ||||||
| 05 | 10:35 | W 24 | 16.09 | Overcast | OVC039 | 6 | -2 | 57% | 2 | 75.29 | 0.0 | ||||||
| 05 | 10:15 | W 22 G 35 | 16.09 | Overcast | BKN039 BKN050 OVC060 | 6 | -2 | 57% | 2 | 75.29 | 0.0 | ||||||
| 05 | 09:55 | W 24 G 37 | 16.09 | Partly Cloudy | FEW035 FEW043 SCT060 | 6 | -2 | 57% | 2 | 75.26 | 0.0 | ||||||
| 05 | 09:35 | W 30 G 41 | 16.09 | A Few Clouds | FEW032 | 5 | -2 | 61% | 0 | 75.23 | 0.0 | ||||||
| 05 | 09:15 | W 24 G 35 | 16.09 | A Few Clouds | FEW030 | 4 | -3 | 61% | -0 | 75.23 | 0.0 | ||||||
| 05 | 08:55 | W 22 G 33 | 16.09 | Fair | CLR | 4 | -2 | 65% | -0 | 75.23 | 0.0 | ||||||
| 05 | 08:35 | W 22 G 30 | 16.09 | Fair | CLR | 3 | -2 | 70% | -1 | 75.23 | 0.0 | ||||||
| 05 | 08:15 | W 19 | 16.09 | Fair | CLR | 3 | -3 | 65% | -1 | 75.21 | 0.0 | ||||||
| 05 | 07:55 | W 19 | 16.09 | Fair | CLR | 2 | -3 | 6 | 0.8 | 70% | -2 | 75.21 | 0.0 | ||||
| 05 | 07:35 | W 15 | 16.09 | Fair | CLR | 2 | -3 | 70% | -2 | 75.21 | 0.0 | ||||||
| 05 | 07:15 | W 13 | 16.09 | Fair | CLR | 1 | -3 | 75% | -2 | 75.18 | 0.0 | ||||||
| 05 | 06:55 | W 11 | 16.09 | Fair | CLR | 1 | -4 | 70% | -2 | 75.16 | 0.0 | ||||||
| 05 | 06:35 | W 11 | 16.09 | Fair | CLR | 1 | -4 | 70% | -2 | 75.13 | 0.0 | ||||||
| 05 | 06:15 | W 11 | 16.09 | Fair | CLR | 1 | -4 | 70% | -2 | 75.11 | 0.0 | ||||||
| 05 | 05:55 | W 19 | 16.09 | Partly Cloudy | SCT036 | 2 | -4 | 65% | -2 | 75.08 | 0.0 | ||||||
| 05 | 05:35 | W 22 G 28 | 16.09 | A Few Clouds | FEW031 FEW038 | 2 | -4 | 65% | -3 | 75.08 | 0.0 | ||||||
| 05 | 05:15 | NW 9 | 16.09 | Fair | CLR | 2 | -2 | 75% | -0 | 75.06 | 0.0 | ||||||
| 05 | 04:55 | NW 11 | 16.09 | Fair | CLR | 3 | -2 | 70% | 0 | 75.03 | 0.0 | ||||||
| 05 | 04:35 | NW 7 | 16.09 | A Few Clouds | FEW060 | 3 | -2 | 70% | 1 | 75.03 | 0.0 | ||||||
| 05 | 04:15 | NW 9 | 16.09 | A Few Clouds | FEW060 | 3 | -2 | 70% | 1 | 75.01 | 0.0 | ||||||
| 05 | 03:55 | W 17 | 16.09 | A Few Clouds | FEW045 | 3 | -1 | 75% | -1 | 75.03 | 0.0 | ||||||
| 05 | 03:35 | W 15 | 16.09 | Mostly Cloudy | BKN043 | 4 | -1 | 70% | 1 | 75.01 | 0.0 | ||||||
| 05 | 03:15 | W 19 | 16.09 | Partly Cloudy | FEW043 SCT075 | 4 | -1 | 70% | 0 | 75.01 | 0.0 | ||||||
| 05 | 02:55 | W 20 | 16.09 | A Few Clouds | FEW075 | 4 | 0 | 75% | 0 | 75.01 | 0.0 | ||||||
| 05 | 02:35 | W 22 G 28 | 16.09 | Fair | CLR | 5 | -1 | 66% | 1 | 74.98 | 0.0 | ||||||
| 05 | 02:15 | W 22 G 37 | 16.09 | Mostly Cloudy | SCT075 BKN090 | 5 | -1 | 66% | 1 | 75.01 | 0.0 | ||||||
| 05 | 01:55 | W 20 G 39 | 16.09 | Overcast | OVC075 | 6 | -1 | 9.6 | 6 | 61% | 3 | 74.98 | 0.0 | ||||
| 05 | 01:35 | NW 28 G 43 | 16.09 | Overcast | OVC075 | 6 | -1 | 61% | 2 | 74.98 | 0.0 | ||||||
| 05 | 01:15 | W 19 G 35 | 16.09 | Overcast | OVC075 | 7 | -1 | 57% | 4 | 74.93 | 0.0 | ||||||
| 05 | 00:55 | NW 26 G 37 | 16.09 | Overcast | OVC075 | 7 | -1 | 57% | 3 | 74.93 | 0.0 | ||||||
| 05 | 00:35 | NW 22 G 31 | 16.09 | Overcast | OVC065 | 7 | -1 | 57% | 4 | 74.9 | 0.0 | ||||||
| 05 | 00:15 | W 19 G 31 | 16.09 | Overcast | OVC065 | 7 | -1 | 57% | 4 | 74.88 | 0.0 | ||||||
| 04 | 23:55 | W 26 G 39 | 16.09 | Overcast | OVC065 | 7 | -1 | 57% | 3 | 74.88 | 0.0 | ||||||
| 04 | 23:35 | W 22 G 44 | 16.09 | Overcast | OVC065 | 8 | -1 | 53% | 5 | 74.85 | 0.0 | ||||||
| 04 | 23:15 | NW 22 G 41 | 16.09 | Overcast | OVC065 | 8 | -1 | 53% | 5 | 74.85 | 0.0 | ||||||
| 04 | 22:55 | NW 37 G 44 | 16.09 | Overcast and Breezy | OVC065 | 8 | -1 | 53% | 4 | 74.83 | 0.0 | ||||||
| 04 | 22:35 | NW 24 G 39 | 16.09 | Overcast | OVC065 | 8 | -1 | 53% | 5 | 74.83 | 0.0 | ||||||
| 04 | 22:15 | NW 17 | 16.09 | Overcast | OVC075 | 8 | -1 | 53% | 6 | 74.8 | 0.0 | ||||||
| 04 | 21:55 | NW 22 | 16.09 | Overcast | OVC075 | 8 | 0 | 57% | 5 | 74.8 | 0.0 | ||||||
| 04 | 21:35 | NW 22 G 28 | 16.09 | Overcast | FEW060 OVC075 | 8 | 0 | 57% | 5 | 74.78 | 0.0 | ||||||
| 04 | 21:15 | NW 17 G 26 | 16.09 | Overcast | BKN060 OVC075 | 8 | 0 | 57% | 6 | 74.75 | 0.0 | ||||||
| 04 | 20:55 | NW 11 | 16.09 | Mostly Cloudy | BKN060 BKN100 | 8 | 0 | 57% | 6 | 74.75 | 0.0 | ||||||
| 04 | 20:35 | NW 22 G 31 | 16.09 | Partly Cloudy | SCT110 | 9 | 0 | 54% | 6 | 74.75 | 0.0 | ||||||
| 04 | 20:15 | NW 19 G 30 | 16.09 | Overcast | BKN085 OVC110 | 10 | 1 | 54% | 8 | 74.73 | 0.0 | ||||||
| 04 | 19:55 | NW 11 G 30 | 16.09 | Overcast | OVC070 | 9 | 1 | 14.6 | 8.7 | 58% | 8 | 74.68 | 0.0 | 0.03 | |||
| 04 | 19:35 | NW 13 | 16.09 | Light Rain | OVC070 | 9 | 3 | 66% | 7 | 74.68 | 0.0 | ||||||
| 04 | 19:15 | NW 13 | 16.09 | Light Rain | OVC070 | 9 | 4 | 71% | 7 | 74.65 | 0.0 | ||||||
| 04 | 18:55 | NW 11 G 28 | 16.09 | Light Rain | OVC070 | 9 | 4 | 71% | 8 | 74.65 | 0.0 | ||||||
| 04 | 18:35 | NW 22 G 30 | 16.09 | Light Rain | OVC070 | 10 | 4 | 67% | 7 | 74.63 | 0.0 | ||||||
| 04 | 18:15 | N 19 G 33 | 16.09 | Light Rain | OVC075 | 11 | 3 | 58% | 74.63 | 0.0 | |||||||
| 04 | 17:55 | NW 19 G 35 | 16.09 | Overcast | OVC080 | 12 | 4 | 58% | 74.6 | 0.0 | |||||||
| 04 | 17:35 | NW 20 G 26 | 16.09 | Overcast | FEW060 OVC080 | 12 | 5 | 63% | 74.57 | 0.0 | |||||||
| 04 | 17:15 | N 17 | 16.09 | Overcast | FEW065 OVC075 | 13 | 5 | 59% | 74.5 | 0.0 | |||||||
| 04 | 16:55 | N 13 | 16.09 | Light Rain | FEW060 OVC075 | 14 | 6 | 59% | 74.5 | 0.0 | |||||||
| 04 | 16:35 | N 15 | 16.09 | Overcast | SCT060 OVC075 | 13 | 6 | 63% | 74.5 | 0.0 | |||||||
| 04 | 16:15 | N 15 | 16.09 | Overcast | OVC085 | 14 | 5 | 55% | 74.5 | 0.0 | |||||||
| 04 | 15:55 | N 17 | 16.09 | Mostly Cloudy | BKN095 BKN110 | 14 | 5 | 55% | 74.5 | 0.0 | |||||||
| Date | Time (edt) | Wind (kph) | Vis. (km) | Weather | Sky Cond. | Air | Dwpt | Max. | Min. | Relative Humidity | Wind Chill (°C) | Heat Index (°C) | altimeter (cm) | sea level (mb) | 1 hr | 3 hr | 6 hr |
| 6 hour | |||||||||||||||||
| Temperature (ºC) | Pressure | Precipitation (cm) | |||||||||||||||